createdAt,value
2023-02-13T00:04:19.366Z,71.47
2023-02-13T00:09:24.910Z,67.70
2023-02-13T00:14:29.183Z,64.25
2023-02-13T00:19:33.676Z,66.53
2023-02-13T00:24:39.588Z,62.75
2023-02-13T00:29:44.357Z,63.78
2023-02-13T00:34:49.443Z,62.22
2023-02-13T00:39:56.463Z,59.20
2023-02-13T00:45:01.231Z,57.33
2023-02-13T00:50:08.617Z,66.60
2023-02-13T00:55:15.392Z,61.63
2023-02-13T01:00:21.250Z,60.78
2023-02-13T01:05:25.491Z,63.58
2023-02-13T01:10:31.198Z,63.17
2023-02-13T01:15:36.417Z,66.63
2023-02-13T01:20:40.969Z,68.80
2023-02-13T01:25:46.827Z,57.53
2023-02-13T01:30:56.294Z,55.85
2023-02-13T01:36:06.261Z,61.85
2023-02-13T01:41:12.247Z,64.93
2023-02-13T01:46:24.379Z,58.47
2023-02-13T01:51:33.116Z,57.78
2023-02-13T01:56:43.622Z,57.85
2023-02-13T02:01:48.759Z,52.83
2023-02-13T02:06:58.453Z,54.08
2023-02-13T02:12:15.873Z,58.17
2023-02-13T02:17:21.066Z,51.90
2023-02-13T02:23:03.701Z,48.55
2023-02-13T02:28:48.558Z,53.67
2023-02-13T02:34:11.040Z,45.63
2023-02-13T02:39:33.643Z,40.63
2023-02-13T02:44:48.247Z,42.97
2023-02-13T02:50:13.397Z,41.28
2023-02-13T03:00:53.611Z,43.58
2023-02-13T03:06:12.303Z,30.70
2023-02-13T03:11:33.685Z,31.05
2023-02-13T03:16:55.381Z,32.50
2023-02-13T03:22:23.696Z,30.67
2023-02-13T03:27:59.843Z,28.23
2023-02-13T03:33:40.587Z,27.65
2023-02-13T03:38:56.840Z,28.52
2023-02-13T03:44:13.357Z,29.27
2023-02-13T03:49:40.866Z,28.40
2023-02-13T03:55:09.662Z,24.45
2023-02-13T04:00:18.814Z,26.95
2023-02-13T04:05:26.930Z,28.73
2023-02-13T04:10:36.838Z,24.02
2023-02-13T04:15:49.244Z,28.45
2023-02-13T04:20:53.785Z,30.25
2023-02-13T04:26:01.713Z,27.83
2023-02-13T04:31:06.703Z,30.58
2023-02-13T04:36:11.587Z,32.25
2023-02-13T04:41:17.893Z,33.65
2023-02-13T04:46:22.123Z,29.02
2023-02-13T04:51:26.362Z,33.38
2023-02-13T04:56:32.117Z,34.17
2023-02-13T05:01:36.707Z,29.83
2023-02-13T05:06:41.563Z,33.95
2023-02-13T05:11:47.478Z,29.00
2023-02-13T05:16:51.976Z,33.17
2023-02-13T05:22:13.943Z,34.28
2023-02-13T05:27:19.690Z,31.92
2023-02-13T05:32:24.141Z,32.85
2023-02-13T05:37:28.627Z,33.80
2023-02-13T05:42:34.566Z,34.13
2023-02-13T05:47:38.735Z,36.55
2023-02-13T05:52:43.157Z,27.80
2023-02-13T05:57:48.877Z,28.98
2023-02-13T06:02:53.340Z,38.70
2023-02-13T06:07:57.774Z,31.15
2023-02-13T06:13:03.825Z,33.95
2023-02-13T06:18:08.548Z,36.35
2023-02-13T06:23:13.085Z,36.83
2023-02-13T06:28:18.962Z,45.13
2023-02-13T06:33:23.326Z,43.88
2023-02-13T06:38:27.991Z,37.90
2023-02-13T06:48:38.472Z,42.78
2023-02-13T06:53:42.682Z,40.75
2023-02-13T06:58:48.428Z,33.78
2023-02-13T07:03:52.823Z,36.13
2023-02-13T07:08:57.388Z,37.08
2023-02-13T07:14:03.136Z,36.38
2023-02-13T07:19:07.857Z,30.42
2023-02-13T07:24:12.535Z,35.22
2023-02-13T07:34:22.638Z,33.50
2023-02-13T07:39:27.165Z,29.73
2023-02-13T07:44:32.700Z,26.45
2023-02-13T07:49:37.465Z,25.17
2023-02-13T07:54:47.399Z,29.27
2023-02-13T07:59:53.701Z,32.78
2023-02-13T08:04:58.061Z,27.45
2023-02-13T08:10:19.793Z,28.40
2023-02-13T08:15:26.152Z,25.30
2023-02-13T08:20:30.564Z,23.05
2023-02-13T08:25:35.356Z,26.75
2023-02-13T08:30:41.302Z,25.70
2023-02-13T08:35:45.704Z,22.75
2023-02-13T08:40:50.268Z,22.60
2023-02-13T08:45:59.211Z,26.70
2023-02-13T08:51:08.426Z,22.17
2023-02-13T08:56:13.039Z,18.10
2023-02-13T09:01:19.046Z,22.67
2023-02-13T09:06:25.657Z,22.92
2023-02-13T09:11:30.097Z,23.98
2023-02-13T09:16:36.277Z,19.85
2023-02-13T09:21:40.486Z,15.95
2023-02-13T09:26:44.981Z,14.45
2023-02-13T09:31:50.637Z,14.82
2023-02-13T09:36:55.848Z,13.27
2023-02-13T09:42:02.127Z,14.80
2023-02-13T09:47:15.090Z,11.18
2023-02-13T09:52:19.447Z,9.60
2023-02-13T09:57:32.290Z,11.20
2023-02-13T10:03:18.640Z,11.07
2023-02-13T10:08:39.843Z,11.83
2023-02-13T10:13:58.794Z,10.15
2023-02-13T10:19:14.676Z,10.90
2023-02-13T10:24:31.272Z,12.63
2023-02-13T10:30:03.066Z,11.95
2023-02-13T10:35:27.492Z,10.68
2023-02-13T10:40:39.168Z,9.15
2023-02-13T10:45:58.404Z,6.38
2023-02-13T10:51:14.279Z,8.52
2023-02-13T10:56:32.554Z,9.95
2023-02-13T11:01:47.343Z,10.95
2023-02-13T11:06:58.938Z,10.65
2023-02-13T11:12:27.502Z,10.73
2023-02-13T11:17:35.877Z,10.75
2023-02-13T11:22:43.593Z,10.82
2023-02-13T11:27:51.024Z,11.68
2023-02-13T11:33:01.233Z,11.45
2023-02-13T11:38:24.752Z,9.23
2023-02-13T11:43:35.077Z,9.43
2023-02-13T11:48:39.766Z,10.10
2023-02-13T11:53:45.347Z,9.27
2023-02-13T11:59:03.389Z,9.23
2023-02-13T12:04:18.046Z,12.30
2023-02-13T12:09:23.930Z,12.00
2023-02-13T12:14:34.156Z,14.60
2023-02-13T12:19:44.098Z,12.45
2023-02-13T12:25:15.233Z,8.50
2023-02-13T12:30:59.770Z,8.27
2023-02-13T12:36:14.161Z,9.20
2023-02-13T12:41:24.049Z,8.90
2023-02-13T12:46:35.656Z,10.38
2023-02-13T12:51:54.648Z,11.77
2023-02-13T12:57:20.616Z,13.40
2023-02-13T13:03:02.188Z,10.25
2023-02-13T13:08:45.648Z,10.68
2023-02-13T13:14:03.540Z,10.38
2023-02-13T13:19:21.237Z,11.50
2023-02-13T13:24:53.956Z,11.30
2023-02-13T13:30:03.772Z,11.13
2023-02-13T13:35:14.872Z,12.95
2023-02-13T13:40:35.273Z,12.32
2023-02-13T13:45:48.701Z,11.43
2023-02-13T13:50:53.539Z,11.35
2023-02-13T13:56:07.966Z,15.18
2023-02-13T14:01:30.727Z,12.07
2023-02-13T14:07:17.037Z,13.57
2023-02-13T14:12:49.239Z,12.23
2023-02-13T14:17:58.140Z,12.10
2023-02-13T14:23:16.136Z,11.05
2023-02-13T14:28:25.589Z,13.52
2023-02-13T14:33:33.807Z,15.13
2023-02-13T14:38:38.540Z,17.00
2023-02-13T14:43:52.614Z,17.30
2023-02-13T14:49:04.451Z,18.40
2023-02-13T14:54:20.384Z,15.88
2023-02-13T14:59:32.809Z,17.27
2023-02-13T15:04:45.083Z,17.35
2023-02-13T15:09:55.018Z,20.27
2023-02-13T15:15:01.384Z,20.27
2023-02-13T15:20:22.226Z,19.25
2023-02-13T15:25:34.941Z,17.80
2023-02-13T15:30:40.012Z,23.05
2023-02-13T15:35:46.549Z,23.55
2023-02-13T15:40:54.458Z,19.48
2023-02-13T15:46:03.849Z,17.63
2023-02-13T15:51:09.595Z,58.28
2023-02-13T15:56:16.274Z,24.13
2023-02-13T16:01:21.236Z,36.55
2023-02-13T16:06:27.012Z,42.50
2023-02-13T16:11:36.299Z,29.52
2023-02-13T16:16:50.037Z,17.08
2023-02-13T16:21:57.494Z,18.55
2023-02-13T16:27:02.468Z,20.15
2023-02-13T16:32:19.776Z,22.77
2023-02-13T16:37:32.320Z,17.75
2023-02-13T16:42:37.446Z,19.30
2023-02-13T16:47:41.834Z,15.60
2023-02-13T16:52:47.654Z,15.38
2023-02-13T16:57:52.052Z,17.42
2023-02-13T17:02:56.408Z,14.27
2023-02-13T17:08:05.292Z,18.75
2023-02-13T17:13:19.150Z,15.45
2023-02-13T17:18:24.700Z,16.90
2023-02-13T17:23:30.546Z,22.10
2023-02-13T17:28:35.310Z,20.50
2023-02-13T17:33:41.381Z,18.67
2023-02-13T17:38:50.699Z,20.00
2023-02-13T17:43:55.104Z,15.43
2023-02-13T17:48:59.251Z,13.63
2023-02-13T17:54:04.987Z,16.92
2023-02-13T17:59:09.134Z,12.15
2023-02-13T18:04:13.600Z,12.75
2023-02-13T18:09:19.544Z,15.43
2023-02-13T18:14:25.660Z,14.02
2023-02-13T18:19:30.265Z,19.48
2023-02-13T18:24:38.499Z,16.50
2023-02-13T18:29:43.383Z,20.77
2023-02-13T18:34:50.110Z,21.20
2023-02-13T18:39:56.458Z,21.33
2023-02-13T18:45:00.988Z,22.92
2023-02-13T18:50:05.997Z,23.35
2023-02-13T18:55:11.622Z,23.58
2023-02-13T19:00:18.383Z,21.80
2023-02-13T19:05:22.913Z,23.33
2023-02-13T19:10:28.609Z,20.70
2023-02-13T19:15:33.022Z,20.40
2023-02-13T19:20:38.576Z,18.13
2023-02-13T19:25:44.270Z,19.17
2023-02-13T19:30:48.700Z,19.65
2023-02-13T19:36:05.007Z,22.48
2023-02-13T19:41:13.750Z,17.58
2023-02-13T19:46:20.298Z,17.63
2023-02-13T19:51:28.096Z,18.08
2023-02-13T19:56:37.936Z,19.77
2023-02-13T20:01:43.602Z,22.35
2023-02-13T20:06:47.952Z,21.77
2023-02-13T20:11:54.326Z,19.25
2023-02-13T20:16:58.827Z,22.77
2023-02-13T20:22:04.579Z,18.38
2023-02-13T20:27:11.642Z,21.05
2023-02-13T20:32:16.339Z,19.75
2023-02-13T20:37:20.757Z,19.35
2023-02-13T20:42:27.060Z,18.67
2023-02-13T20:47:31.193Z,20.10
2023-02-13T20:52:36.191Z,19.50
2023-02-13T20:57:42.334Z,19.98
2023-02-13T21:02:46.777Z,17.00
2023-02-13T21:07:51.168Z,18.23
2023-02-13T21:12:56.696Z,16.15
2023-02-13T21:18:01.780Z,18.27
2023-02-13T21:23:06.396Z,19.35
2023-02-13T21:28:12.020Z,21.08
2023-02-13T21:33:16.262Z,16.20
2023-02-13T21:38:21.912Z,18.73
2023-02-13T21:43:29.266Z,19.98
2023-02-13T21:48:33.596Z,16.58
2023-02-13T21:53:38.763Z,19.20
2023-02-13T21:58:46.128Z,21.10
2023-02-13T22:03:50.779Z,18.67
2023-02-13T22:08:58.915Z,18.75
2023-02-13T22:14:07.883Z,19.23
2023-02-13T22:19:15.626Z,18.63
2023-02-13T22:24:20.305Z,16.50
2023-02-13T22:29:27.165Z,22.80
2023-02-13T22:34:31.490Z,29.35
2023-02-13T22:39:36.172Z,28.35
2023-02-13T22:44:42.276Z,22.58
2023-02-13T22:49:46.890Z,22.48
2023-02-13T22:54:51.193Z,24.10
2023-02-13T22:59:57.410Z,22.63
2023-02-13T23:05:01.765Z,22.73
2023-02-13T23:10:08.340Z,21.02
2023-02-13T23:15:15.813Z,17.77
2023-02-13T23:20:21.263Z,18.60
2023-02-13T23:25:25.993Z,20.95
2023-02-13T23:30:33.878Z,22.83
2023-02-13T23:35:40.096Z,22.50
2023-02-13T23:40:44.449Z,22.70
2023-02-13T23:50:55.107Z,21.40
2023-02-13T23:55:59.258Z,22.10
